tititudorancea.com
Station Historical Data
Daily Summary for November 8, 2018 Units:  Metric    English   Both
« Previous Day
Next Day »
Daily Weekly Monthly Yearly Custom
  High: Low: Average:
Temperature: -17.8 °C 1.4 °C 7.1 °C
Dew Point: -17.8 °C 0.3 °C 2.8 °C
Humidity: Humidity % 43 % 76 %
Wind Speed: 0 km/h 0 km/h 5 km/h
Wind Gust: 0 km/h - -
Wind:- - WSW
Pressure: 0 hPa 1016.5 hPa -
Precipitation: 0 mm    
Historical Graphs
 
 
Ararat weather Find more about Weather in Ararat, AU


 



 


Tabular Data for November 8, 2018
Time Temperature Dew Point Pressure Wind Wind Speed Wind Gust Humidity Rainfall Rate (Hourly)
-17.8 °C -17.8 °C 0 hPa Calm     Humidity % 0 mm
00:04 6.7 °C 2.9 °C 1016.5 hPa WSW 16.7 km/h 10.5 km/h 77 % 0 mm
00:09 6.7 °C 2.8 °C 1016.5 hPa WSW 11.1 km/h 9.7 km/h 76 % 0 mm
00:14 6.7 °C 2.6 °C 1016.5 hPa WSW 13 km/h 10.5 km/h 75 % 0 mm
00:19 6.8 °C 2.4 °C 1016.8 hPa SW 18.5 km/h 9.8 km/h 74 % 0 mm
00:24 7.1 °C 2.4 °C 1016.8 hPa SW 22.2 km/h 11.3 km/h 72 % 0 mm
00:29 7.2 °C 2.4 °C 1016.8 hPa SW 18.5 km/h 12.6 km/h 72 % 0 mm
00:34 7.1 °C 2.3 °C 1016.8 hPa SW 14.8 km/h 8 km/h 72 % 0 mm
00:39 6.9 °C 2.4 °C 1016.8 hPa SW 8 km/h 5.8 km/h 73 % 0 mm
00:44 6.7 °C 2.3 °C 1016.8 hPa SW 9.3 km/h 6.6 km/h 74 % 0 mm
00:49 6.4 °C 2.3 °C 1016.8 hPa North 8 km/h 5.6 km/h 75 % 0 mm
00:54 6.3 °C 2.3 °C 1017.2 hPa SW 7.4 km/h 6 km/h 76 % 0 mm
00:59 6.1 °C 2.2 °C 1017.2 hPa North 1.9 km/h 0.5 km/h 76 % 0 mm
01:04 6 °C 2.3 °C 1017.2 hPa SW 3.7 km/h 1.1 km/h 77 % 0 mm
01:09 5.8 °C 2.3 °C 1017.2 hPa SW 8 km/h 5.1 km/h 78 % 0 mm
01:14 5.7 °C 2.1 °C 1017.2 hPa SW 7.4 km/h 4 km/h 78 % 0 mm
01:19 5.6 °C 2.2 °C 1017.2 hPa SW 9.3 km/h 6.4 km/h 79 % 0 mm
01:24 5.5 °C 2.2 °C 1016.8 hPa SW 6.4 km/h 3.4 km/h 79 % 0 mm
01:29 5.4 °C 2.3 °C 1017.2 hPa SW 4.8 km/h 2.3 km/h 80 % 0 mm
01:34 5.4 °C 2.2 °C 1017.2 hPa SW 5.6 km/h 1.8 km/h 80 % 0 mm
01:39 5.3 °C 2.3 °C 1016.8 hPa SW 5.6 km/h 4.5 km/h 81 % 0 mm
01:44 5.3 °C 2.3 °C 1016.8 hPa SW 7.4 km/h 4 km/h 81 % 0 mm
01:49 5.2 °C 2.2 °C 1016.8 hPa SW 5.6 km/h 3.9 km/h 81 % 0 mm
01:54 5.2 °C 2.3 °C 1016.8 hPa SW 5.6 km/h 3.9 km/h 82 % 0 mm
01:59 5.1 °C 2.3 °C 1016.8 hPa SW 5.6 km/h 4.3 km/h 82 % 0 mm
02:04 5 °C 2.2 °C 1016.8 hPa SW 5.6 km/h 3.2 km/h 82 % 0 mm
02:05 6.7 °C 2.9 °C 1016.5 hPa WSW 9.7 km/h 19.3 km/h 77 % 0 mm
02:09 5 °C 2.3 °C 1016.8 hPa SW 3.7 km/h 0.2 km/h 83 % 0 mm
02:10 6.7 °C 2.9 °C 1016.5 hPa WSW 11.3 km/h 16.1 km/h 77 % 0 mm
02:14 4.9 °C 2.2 °C 1016.8 hPa North 1.9 km/h   83 % 0 mm
02:15 6.7 °C 2.8 °C 1016.5 hPa WSW 4.8 km/h 12.9 km/h 76 % 0 mm
02:19 4.8 °C 1.9 °C 1016.8 hPa Calm     82 % 0 mm
02:20 6.7 °C 2.4 °C 1016.5 hPa WSW 8 km/h 17.7 km/h 74 % 0 mm
02:24 4.6 °C 1.9 °C 1016.8 hPa Calm     83 % 0 mm
02:25 6.8 °C 2.3 °C 1016.8 hPa SW 16.1 km/h 20.9 km/h 73 % 0 mm
02:29 4.4 °C 1.8 °C 1016.8 hPa SW 3.7 km/h 0.5 km/h 83 % 0 mm
02:30 7.1 °C 2.4 °C 1016.8 hPa SW 16.1 km/h 25.7 km/h 72 % 0 mm
02:34 4.2 °C 1.8 °C 1016.8 hPa Calm     84 % 0 mm
02:35 7.2 °C 2.4 °C 1016.8 hPa SW 4.8 km/h 19.3 km/h 72 % 0 mm
02:39 4 °C 1.6 °C 1016.8 hPa Calm     84 % 0 mm
02:40 7 °C 2.5 °C 1016.8 hPa SW 9.7 km/h 17.7 km/h 73 % 0 mm
02:44 3.8 °C 1.6 °C 1016.8 hPa Calm     85 % 0 mm
02:45 6.8 °C 2.3 °C 1016.8 hPa SW 4.8 km/h 14.5 km/h 73 % 0 mm
02:49 3.7 °C 1.4 °C 1016.8 hPa Calm     85 % 0 mm
02:50 6.6 °C 2.2 °C 1016.8 hPa SW 4.8 km/h 9.7 km/h 74 % 0 mm
02:54 3.4 °C 1.2 °C 1016.8 hPa Calm     85 % 0 mm
02:55 6.4 °C 2.3 °C 1017.2 hPa SW 4.8 km/h 9.7 km/h 75 % 0 mm
02:59 3.3 °C 1.2 °C 1016.8 hPa Calm     86 % 0 mm
03:00 6.2 °C 2.3 °C 1017.2 hPa SW 4.8 km/h 8 km/h 76 % 0 mm
03:04 3.2 °C 1.1 °C 1016.8 hPa Calm     86 % 0 mm
03:05 6.1 °C 2.2 °C 1017.2 hPa Calm   3.2 km/h 76 % 0 mm
03:09 3.1 °C 1 °C 1016.8 hPa Calm     86 % 0 mm
03:10 5.9 °C 2.2 °C 1017.2 hPa SW 3.2 km/h 6.4 km/h 77 % 0 mm
03:14 2.9 °C 1 °C 1017.2 hPa Calm     87 % 0 mm
03:15 5.8 °C 2.2 °C 1017.2 hPa SW 4.8 km/h 9.7 km/h 78 % 0 mm
03:19 2.8 °C 0.9 °C 1017.2 hPa Calm     87 % 0 mm
03:20 5.6 °C 2.1 °C 1017.2 hPa SW 4.8 km/h 8 km/h 78 % 0 mm
03:24 2.7 °C 0.9 °C 1017.2 hPa Calm     88 % 0 mm
03:25 5.6 °C 2.3 °C 1017.2 hPa SW 4.8 km/h 9.7 km/h 79 % 0 mm
03:29 2.7 °C 0.9 °C 1017.2 hPa Calm     88 % 0 mm
03:30 5.5 °C 2.3 °C 1017.2 hPa SW 4.8 km/h 6.4 km/h 80 % 0 mm
03:34 2.7 °C 0.9 °C 1017.2 hPa Calm     88 % 0 mm
03:35 5.4 °C 2.2 °C 1017.2 hPa SW 3.2 km/h 6.4 km/h 80 % 0 mm
03:39 2.6 °C 1 °C 1017.2 hPa Calm     89 % 0 mm
03:40 5.3 °C 2.2 °C 1017.2 hPa SW 3.2 km/h 4.8 km/h 80 % 0 mm
03:44 2.7 °C 1.1 °C 1017.2 hPa Calm     89 % 0 mm
03:45 5.3 °C 2.3 °C 1016.8 hPa SW 4.8 km/h 6.4 km/h 81 % 0 mm
03:49 2.9 °C 1.4 °C 1017.2 hPa Calm     90 % 0 mm
03:50 5.3 °C 2.3 °C 1016.8 hPa SW 4.8 km/h 11.3 km/h 81 % 0 mm
03:54 2.9 °C 1.4 °C 1017.2 hPa SW 3.7 km/h 1.6 km/h 90 % 0 mm
03:55 5.2 °C 2.2 °C 1016.8 hPa SW 3.2 km/h 6.4 km/h 81 % 0 mm
03:59 3 °C 1.5 °C 1017.2 hPa Calm   0.5 km/h 90 % 0 mm
04:00 5.2 °C 2.3 °C 1016.8 hPa SW 4.8 km/h 6.4 km/h 82 % 0 mm
04:04 3 °C 1.5 °C 1017.2 hPa SW 3.7 km/h 0.5 km/h 90 % 0 mm
04:05 5.1 °C 2.2 °C 1016.8 hPa SW 3.2 km/h 6.4 km/h 82 % 0 mm
04:09 2.9 °C 1.3 °C 1017.2 hPa North 3.2 km/h 1 km/h 89 % 0 mm
04:10 5 °C 2.3 °C 1016.8 hPa SW 1.6 km/h 6.4 km/h 83 % 0 mm
04:14 2.9 °C 1.3 °C 1017.2 hPa Calm     89 % 0 mm
04:15 4.9 °C 2.3 °C 1016.8 hPa Calm   3.2 km/h 83 % 0 mm
04:19 2.8 °C 1.3 °C 1017.2 hPa Calm     90 % 0 mm
04:20 4.9 °C 2.2 °C 1016.8 hPa Calm   1.6 km/h 83 % 0 mm
04:24 2.7 °C 1.2 °C 1017.2 hPa Calm     90 % 0 mm
04:25 4.7 °C 1.9 °C 1016.8 hPa Calm     82 % 0 mm
04:29 2.6 °C 1.1 °C 1017.2 hPa SW 3.7 km/h 2.1 km/h 90 % 0 mm
04:30 4.5 °C 1.9 °C 1016.8 hPa Calm     83 % 0 mm
04:34 2.6 °C 1.1 °C 1016.8 hPa SW 1.9 km/h 1.4 km/h 90 % 0 mm
04:39 2.6 °C 1.1 °C 1017.2 hPa Calm     90 % 0 mm
04:40 4.2 °C 1.7 °C 1016.8 hPa Calm     84 % 0 mm
04:44 2.4 °C 0.9 °C 1017.2 hPa Calm     90 % 0 mm
04:45 3.9 °C 1.5 °C 1016.8 hPa Calm     84 % 0 mm
04:49 2.3 °C 0.8 °C 1017.2 hPa Calm     90 % 0 mm
04:50 3.8 °C 1.3 °C 1016.8 hPa Calm     84 % 0 mm
04:54 2.3 °C 0.9 °C 1017.2 hPa SW 3.7 km/h 1 km/h 91 % 0 mm
04:55 3.6 °C 1.3 °C 1016.8 hPa Calm     85 % 0 mm
04:59 2.3 °C 0.9 °C 1017.2 hPa Calm     91 % 0 mm
05:00 3.4 °C 1.3 °C 1016.8 hPa Calm     86 % 0 mm
05:04 2.3 °C 1 °C 1017.5 hPa SSW 3.7 km/h   91 % 0 mm
05:05 3.3 °C 1.2 °C 1016.8 hPa Calm     86 % 0 mm
05:09 2.4 °C 1.1 °C 1017.5 hPa Calm     91 % 0 mm
05:10 3.2 °C 1.1 °C 1016.8 hPa Calm     86 % 0 mm
05:14 2.3 °C 0.9 °C 1017.5 hPa Calm     91 % 0 mm
05:15 3 °C 1.1 °C 1016.8 hPa Calm     87 % 0 mm
05:19 2.2 °C 0.8 °C 1017.5 hPa Calm     91 % 0 mm
05:20 2.9 °C 0.9 °C 1017.2 hPa Calm     87 % 0 mm
05:24 2.1 °C 0.8 °C 1017.5 hPa Calm     91 % 0 mm
05:25 2.8 °C 0.8 °C 1017.2 hPa Calm     87 % 0 mm
05:29 2.1 °C 0.7 °C 1017.5 hPa Calm     91 % 0 mm
05:30 2.7 °C 0.9 °C 1017.2 hPa Calm     88 % 0 mm
05:34 1.9 °C 0.6 °C 1017.5 hPa Calm     91 % 0 mm
05:35 2.7 °C 0.9 °C 1017.2 hPa Calm   1.6 km/h 88 % 0 mm
05:39 1.8 °C 0.5 °C 1017.8 hPa Calm     91 % 0 mm
05:40 2.7 °C 0.9 °C 1017.2 hPa SW 1.6 km/h 4.8 km/h 88 % 0 mm
05:44 1.8 °C 0.5 °C 1017.8 hPa Calm     91 % 0 mm
05:45 2.6 °C 1 °C 1017.2 hPa Calm   1.6 km/h 89 % 0 mm
05:49 1.9 °C 0.7 °C 1017.8 hPa Calm     92 % 0 mm
05:50 2.7 °C 1.2 °C 1017.2 hPa Calm     90 % 0 mm
05:54 1.9 °C 0.7 °C 1017.8 hPa Calm     92 % 0 mm
05:55 2.9 °C 1.4 °C 1017.2 hPa Calm     90 % 0 mm
05:59 1.8 °C 0.4 °C 1017.8 hPa Calm     91 % 0 mm
06:00 3 °C 1.5 °C 1017.2 hPa Calm   3.2 km/h 90 % 0 mm
06:04 1.7 °C 0.6 °C 1017.8 hPa Calm     92 % 0 mm
06:05 3 °C 1.5 °C 1017.2 hPa SW 1.6 km/h 3.2 km/h 90 % 0 mm
06:09 1.7 °C 0.5 °C 1018.2 hPa Calm     92 % 0 mm
06:10 3 °C 1.4 °C 1017.2 hPa Calm   3.2 km/h 89 % 0 mm
06:14 1.6 °C 0.4 °C 1018.2 hPa Calm     92 % 0 mm
06:15 2.9 °C 1.3 °C 1017.2 hPa Calm   3.2 km/h 89 % 0 mm
06:19 1.6 °C 0.4 °C 1018.2 hPa Calm     92 % 0 mm
06:20 2.8 °C 1.3 °C 1017.2 hPa Calm     90 % 0 mm
06:24 1.5 °C 0.3 °C 1018.2 hPa Calm     92 % 0 mm
06:25 2.7 °C 1.2 °C 1017.2 hPa Calm     90 % 0 mm
06:29 1.4 °C 0.3 °C 1018.2 hPa Calm     92 % 0 mm
06:30 2.6 °C 1.1 °C 1017.2 hPa Calm     90 % 0 mm
06:34 1.4 °C 0.3 °C 1018.5 hPa Calm     92 % 0 mm
06:35 2.6 °C 1.1 °C 1017.2 hPa Calm   3.2 km/h 90 % 0 mm
06:39 1.5 °C 0.3 °C 1018.5 hPa Calm     92 % 0 mm
06:40 2.7 °C 1.3 °C 1016.8 hPa SW 3.2 km/h 4.8 km/h 91 % 0 mm
06:44 1.6 °C 0.4 °C 1018.5 hPa Calm     92 % 0 mm
06:45 2.6 °C 1.1 °C 1017.2 hPa SW 1.6 km/h 3.2 km/h 90 % 0 mm
06:49 1.6 °C 0.4 °C 1018.5 hPa Calm     92 % 0 mm
06:54 1.7 °C 0.7 °C 1018.5 hPa Calm     93 % 0 mm
06:59 1.8 °C 0.8 °C 1018.8 hPa Calm     93 % 0 mm
07:00 2.3 °C 0.8 °C 1017.2 hPa Calm   3.2 km/h 90 % 0 mm
07:04 2.1 °C 1.1 °C 1018.8 hPa Calm     93 % 0 mm
07:05 2.3 °C 0.9 °C 1017.2 hPa SW 1.6 km/h 3.2 km/h 91 % 0 mm
07:09 2.4 °C 1.4 °C 1018.8 hPa Calm     93 % 0 mm
07:10 2.3 °C 1 °C 1017.5 hPa Calm   3.2 km/h 91 % 0 mm
07:14 2.6 °C 1.6 °C 1018.8 hPa Calm     93 % 0 mm
07:15 2.4 °C 1.1 °C 1017.5 hPa Calm     91 % 0 mm
07:19 2.9 °C 2.1 °C 1018.8 hPa Calm     94 % 0 mm
07:20 2.2 °C 0.9 °C 1017.5 hPa Calm     91 % 0 mm
07:24 3.2 °C 2.3 °C 1019.2 hPa Calm     94 % 0 mm
07:25 2.2 °C 0.8 °C 1017.5 hPa Calm     91 % 0 mm
07:29 3.4 °C 2.6 °C 1019.2 hPa Calm     94 % 0 mm
07:30 2.1 °C 0.8 °C 1017.5 hPa Calm     91 % 0 mm
07:34 3.7 °C 2.8 °C 1019.2 hPa Calm     94 % 0 mm
07:35 2 °C 0.7 °C 1017.5 hPa Calm     91 % 0 mm
07:39 4.6 °C 3.9 °C 1019.2 hPa Calm     95 % 0 mm
07:40 1.9 °C 0.6 °C 1017.5 hPa Calm     91 % 0 mm
07:44 5.3 °C 4.6 °C 1019.2 hPa Calm     95 % 0 mm
07:45 1.8 °C 0.5 °C 1017.8 hPa Calm     91 % 0 mm
07:49 5.8 °C 5.1 °C 1019.2 hPa SW 3.7 km/h 3.2 km/h 95 % 0 mm
07:50 1.8 °C 0.7 °C 1017.8 hPa Calm     92 % 0 mm
07:54 6.3 °C 5.4 °C 1019.2 hPa SW 3.7 km/h 1.6 km/h 94 % 0 mm
07:55 1.9 °C 0.7 °C 1017.8 hPa Calm     92 % 0 mm
07:59 7 °C 6.1 °C 1019.5 hPa SW 1.9 km/h 0.3 km/h 94 % 0 mm
08:00 1.8 °C 0.5 °C 1017.8 hPa Calm     91 % 0 mm
08:04 7.4 °C 6.2 °C 1019.5 hPa SW 5.6 km/h 1.8 km/h 92 % 0 mm
08:05 1.7 °C 0.4 °C 1017.8 hPa Calm     91 % 0 mm
08:09 7.7 °C 6.3 °C 1019.5 hPa SW 9.7 km/h 8.5 km/h 91 % 0 mm
08:10 1.7 °C 0.6 °C 1017.8 hPa Calm     92 % 0 mm
08:14 8 °C 6.1 °C 1019.5 hPa SW 12.9 km/h 7.6 km/h 88 % 0 mm
08:15 1.6 °C 0.4 °C 1018.2 hPa Calm     92 % 0 mm
08:19 8.3 °C 5.4 °C 1019.5 hPa SW 11.1 km/h 6.1 km/h 82 % 0 mm
08:20 1.6 °C 0.4 °C 1018.2 hPa Calm     92 % 0 mm
08:24 8.7 °C 5.4 °C 1019.5 hPa SW 9.7 km/h 9 km/h 80 % 0 mm
08:25 1.6 °C 0.4 °C 1018.2 hPa Calm   1.6 km/h 92 % 0 mm
08:29 9.1 °C 5.5 °C 1019.5 hPa SW 9.7 km/h 8.7 km/h 78 % 0 mm
08:30 1.4 °C 0.3 °C 1018.2 hPa Calm     92 % 0 mm
08:34 9.2 °C 4.8 °C 1019.5 hPa WSW 14.8 km/h 5.6 km/h 74 % 0 mm
08:35 1.4 °C 0.3 °C 1018.5 hPa Calm     92 % 0 mm
08:39 9.4 °C 4.8 °C 1019.9 hPa WSW 11.1 km/h 6.9 km/h 73 % 0 mm
08:40 1.4 °C 0.3 °C 1018.5 hPa Calm     92 % 0 mm
08:42 9.6 °C 4.9 °C 1019.9 hPa WSW 14.8 km/h 10 km/h 73 % 0 mm
08:45 1.6 °C 0.6 °C 1018.5 hPa Calm     93 % 0 mm
08:50 1.6 °C 0.4 °C 1018.5 hPa Calm     92 % 0 mm
08:55 1.6 °C 0.6 °C 1018.5 hPa Calm     93 % 0 mm
09:00 1.7 °C 0.7 °C 1018.5 hPa Calm     93 % 0 mm
09:05 1.9 °C 0.9 °C 1018.8 hPa Calm     93 % 0 mm
09:10 2.2 °C 1.3 °C 1018.8 hPa Calm     94 % 0 mm
09:15 2.4 °C 1.6 °C 1018.8 hPa Calm     94 % 0 mm
09:20 2.7 °C 1.8 °C 1018.8 hPa Calm     94 % 0 mm
09:25 3.1 °C 2.2 °C 1018.8 hPa Calm     94 % 0 mm
09:30 3.3 °C 2.4 °C 1019.2 hPa Calm     94 % 0 mm
09:35 3.6 °C 2.7 °C 1019.2 hPa Calm     94 % 0 mm
09:45 4.8 °C 4.1 °C 1019.2 hPa Calm     95 % 0 mm
09:50 5.5 °C 4.8 °C 1019.2 hPa SW 1.6 km/h 3.2 km/h 95 % 0 mm
09:55 5.9 °C 5.1 °C 1019.5 hPa Calm   4.8 km/h 94 % 0 mm
10:00 6.6 °C 5.7 °C 1019.2 hPa SW 1.6 km/h 3.2 km/h 94 % 0 mm
10:05 7.2 °C 6.2 °C 1019.5 hPa Calm   3.2 km/h 93 % 0 mm
10:10 7.5 °C 6.3 °C 1019.5 hPa SW 1.6 km/h 4.8 km/h 92 % 0 mm
10:15 7.8 °C 6.2 °C 1019.5 hPa SW 3.2 km/h 11.3 km/h 90 % 0 mm
10:20 8.1 °C 5.7 °C 1019.5 hPa SW 11.3 km/h 17.7 km/h 85 % 0 mm
10:25 8.5 °C 5.6 °C 1019.5 hPa SW 4.8 km/h 12.9 km/h 82 % 0 mm
10:30 8.8 °C 5.4 °C 1019.5 hPa SW 4.8 km/h 12.9 km/h 79 % 0 mm
10:35 9.2 °C 5.2 °C 1019.5 hPa SW 12.9 km/h 17.7 km/h 76 % 0 mm
10:40 9.3 °C 4.9 °C 1019.5 hPa SW 4.8 km/h 19.3 km/h 74 % 0 mm
10:45 9.5 °C 4.9 °C 1019.9 hPa WSW 9.7 km/h 12.9 km/h 73 % 0 mm
10:50 9.6 °C 4.3 °C 1019.9 hPa SW 14.5 km/h 20.9 km/h 70 % 0 mm
10:55 9.6 °C 4.4 °C 1019.9 hPa SW 14.5 km/h 20.9 km/h 70 % 0 mm
11:00 9.7 °C 4.4 °C 1019.9 hPa WSW 14.5 km/h 19.3 km/h 70 % 0 mm
11:05 10.1 °C 4.6 °C 1019.9 hPa WSW 8 km/h 14.5 km/h 69 % 0 mm
11:10 10.3 °C 4.4 °C 1019.9 hPa SW 11.3 km/h 17.7 km/h 67 % 0 mm
11:15 10.3 °C 4.4 °C 1019.9 hPa SW 8 km/h 17.7 km/h 67 % 0 mm
11:20 10.3 °C 4.2 °C 1019.9 hPa SW 8 km/h 16.1 km/h 66 % 0 mm
11:25 10.5 °C 4.4 °C 1019.9 hPa SW 11.3 km/h 19.3 km/h 66 % 0 mm
11:30 10.5 °C 4.6 °C 1019.9 hPa WSW 8 km/h 17.7 km/h 67 % 0 mm
11:35 10.7 °C 4.1 °C 1019.9 hPa WSW 11.3 km/h 16.1 km/h 64 % 0 mm
11:40 10.8 °C 4.4 °C 1019.9 hPa West 12.9 km/h 17.7 km/h 65 % 0 mm
11:45 10.8 °C 4.4 °C 1020.2 hPa West 9.7 km/h 17.7 km/h 65 % 0 mm
11:50 10.3 °C 4.3 °C 1020.2 hPa West 12.9 km/h 14.5 km/h 66 % 0 mm
11:55 10.6 °C 4.7 °C 1019.9 hPa West 9.7 km/h 14.5 km/h 67 % 0 mm
12:00 10.6 °C 3.6 °C 1020.2 hPa West 4.8 km/h 22.5 km/h 62 % 0 mm
12:05 10.9 °C 4.3 °C 1020.2 hPa West 19.3 km/h 25.7 km/h 64 % 0 mm
12:10 11.2 °C 4.4 °C 1020.2 hPa SW 14.5 km/h 17.7 km/h 63 % 0 mm
12:15 11 °C 4.2 °C 1020.2 hPa SW 9.7 km/h 19.3 km/h 63 % 0 mm
12:20 11.4 °C 4.1 °C 1020.2 hPa WSW 11.3 km/h 24.1 km/h 61 % 0 mm
12:30 11.1 °C 3.9 °C 1020.5 hPa WSW 14.5 km/h 20.9 km/h 61 % 0 mm
12:35 10.9 °C 4.1 °C 1020.5 hPa West 9.7 km/h 17.7 km/h 63 % 0 mm
12:40 11.1 °C 3.6 °C 1020.5 hPa West 9.7 km/h 12.9 km/h 60 % 0 mm
12:45 11.6 °C 4.1 °C 1020.2 hPa WSW 12.9 km/h 22.5 km/h 60 % 0 mm
12:50 11.9 °C 4.1 °C 1020.2 hPa SW 12.9 km/h 24.1 km/h 59 % 0 mm
12:55 11.5 °C 3.5 °C 1020.2 hPa WSW 14.5 km/h 19.3 km/h 58 % 0 mm
13:00 11.7 °C 3.5 °C 1020.2 hPa WSW 8 km/h 17.7 km/h 57 % 0 mm
13:05 11.9 °C 3.4 °C 1020.5 hPa SW 12.9 km/h 20.9 km/h 56 % 0 mm
13:10 11.6 °C 3.9 °C 1020.5 hPa WSW 12.9 km/h 20.9 km/h 59 % 0 mm
13:15 11.5 °C 3.5 °C 1020.5 hPa WSW 4.8 km/h 12.9 km/h 58 % 0 mm
13:20 12.1 °C 3.8 °C 1020.5 hPa WSW 9.7 km/h 16.1 km/h 57 % 0 mm
13:25 12.2 °C 3.9 °C 1020.9 hPa WSW 11.3 km/h 20.9 km/h 57 % 0 mm
13:30 12.1 °C 3.6 °C 1020.9 hPa WSW 11.3 km/h 20.9 km/h 56 % 0 mm
13:35 12.1 °C 3.6 °C 1020.9 hPa WSW 8 km/h 16.1 km/h 56 % 0 mm
13:40 12.1 °C 2.8 °C 1020.5 hPa WSW 8 km/h 17.7 km/h 53 % 0 mm
13:45 12.4 °C 3.1 °C 1020.5 hPa WSW 4.8 km/h 12.9 km/h 53 % 0 mm
13:50 12.8 °C 3.5 °C 1020.5 hPa West 9.7 km/h 14.5 km/h 53 % 0 mm
13:55 12.7 °C 3.4 °C 1020.5 hPa WSW 11.3 km/h 20.9 km/h 53 % 0 mm
14:00 12.6 °C 3.3 °C 1020.5 hPa SW 11.3 km/h 16.1 km/h 53 % 0 mm
14:05 12.6 °C 3.5 °C 1020.5 hPa SW 11.3 km/h 14.5 km/h 54 % 0 mm
14:10 13 °C 3.4 °C 1020.5 hPa WSW 14.5 km/h 24.1 km/h 52 % 0 mm
14:15 12.9 °C 3 °C 1020.5 hPa West 4.8 km/h 16.1 km/h 51 % 0 mm
14:20 13.2 °C 3.6 °C 1020.2 hPa WSW 4.8 km/h 11.3 km/h 52 % 0 mm
14:25 13.8 °C 3.6 °C 1020.2 hPa WSW 14.5 km/h 19.3 km/h 50 % 0 mm
14:30 13.2 °C 2.7 °C 1020.2 hPa WSW 4.8 km/h 19.3 km/h 49 % 0 mm
14:35 13.1 °C 3.2 °C 1020.2 hPa SW 4.8 km/h 16.1 km/h 51 % 0 mm
14:40 14.1 °C 2.9 °C 1019.9 hPa SW 4.8 km/h 12.9 km/h 47 % 0 mm
14:45 14.4 °C 2.6 °C 1019.9 hPa WSW 16.1 km/h 20.9 km/h 45 % 0 mm
14:50 13.6 °C 2.2 °C 1019.9 hPa WSW 12.9 km/h 17.7 km/h 46 % 0 mm
14:55 13.7 °C 3.1 °C 1019.9 hPa SW 11.3 km/h 17.7 km/h 49 % 0 mm
15:00 13.5 °C 2.1 °C 1019.9 hPa SSW 11.3 km/h 20.9 km/h 46 % 0 mm
15:05 13.6 °C 2.7 °C 1019.9 hPa WSW 11.3 km/h 19.3 km/h 48 % 0 mm
15:10 13.5 °C 2.4 °C 1019.9 hPa West 11.3 km/h 14.5 km/h 47 % 0 mm
15:15 13.6 °C 2.7 °C 1019.9 hPa WSW 8 km/h 16.1 km/h 48 % 0 mm
15:20 14.1 °C 3.3 °C 1019.5 hPa SW 9.7 km/h 14.5 km/h 48 % 0 mm
15:25 14 °C 3.2 °C 1019.5 hPa SW 11.3 km/h 20.9 km/h 48 % 0 mm
15:30 13.7 °C 3.1 °C 1019.5 hPa SW 14.5 km/h 19.3 km/h 49 % 0 mm
15:35 13.8 °C 3 °C 1019.5 hPa SSW 9.7 km/h 20.9 km/h 48 % 0 mm
15:40 13.7 °C 2.3 °C 1019.5 hPa South 4.8 km/h 11.3 km/h 46 % 0 mm
15:45 14.1 °C 3.2 °C 1019.5 hPa SSW 8 km/h 14.5 km/h 48 % 0 mm
15:50 14.8 °C 2.3 °C 1019.5 hPa WNW 12.9 km/h 20.9 km/h 43 % 0 mm
16:00 14.6 °C 2.8 °C 1019.5 hPa West 4.8 km/h 12.9 km/h 45 % 0 mm
16:05 14.4 °C 2.6 °C 1019.5 hPa WSW 8 km/h 19.3 km/h 45 % 0 mm
16:10 14.6 °C 3.7 °C 1019.5 hPa WSW 16.1 km/h 20.9 km/h 48 % 0 mm
16:15 14.4 °C 2.9 °C 1019.5 hPa West 4.8 km/h 17.7 km/h 46 % 0 mm
16:20 14.3 °C 3.2 °C 1019.5 hPa WNW 11.3 km/h 19.3 km/h 47 % 0 mm
16:25 14.3 °C 3.8 °C 1019.2 hPa West 4.8 km/h 17.7 km/h 49 % 0 mm
16:30 14.8 °C 4.2 °C 1019.2 hPa West 12.9 km/h 19.3 km/h 49 % 0 mm
16:35 14.6 °C 3.1 °C 1019.2 hPa SW 11.3 km/h 20.9 km/h 46 % 0 mm
16:40 14.8 °C 3.3 °C 1019.2 hPa SSW 8 km/h 17.7 km/h 46 % 0 mm
16:45 14.9 °C 3.7 °C 1019.2 hPa SSW 11.3 km/h 14.5 km/h 47 % 0 mm
16:50 15.4 °C 3.5 °C 1019.2 hPa WSW 9.7 km/h 20.9 km/h 45 % 0 mm
16:55 15.7 °C 3.1 °C 1019.2 hPa West 12.9 km/h 22.5 km/h 43 % 0 mm
17:00 15.2 °C 3.3 °C 1019.2 hPa WSW 8 km/h 22.5 km/h 45 % 0 mm
17:05 14.9 °C 3.4 °C 1019.2 hPa WSW 12.9 km/h 25.7 km/h 46 % 0 mm
17:10 14.9 °C 3.4 °C 1018.8 hPa SW 4.8 km/h 17.7 km/h 46 % 0 mm
17:15 14.8 °C 3 °C 1019.2 hPa SW 14.5 km/h 20.9 km/h 45 % 0 mm
17:20 14.6 °C 3.4 °C 1018.8 hPa WSW 11.3 km/h 16.1 km/h 47 % 0 mm
17:25 14.7 °C 3.2 °C 1018.8 hPa West 9.7 km/h 12.9 km/h 46 % 0 mm
17:30 15.1 °C 3.2 °C 1018.8 hPa West 8 km/h 16.1 km/h 45 % 0 mm
17:35 15.1 °C 3.3 °C 1018.8 hPa West 4.8 km/h 14.5 km/h 45 % 0 mm
17:40 15.2 °C 3.6 °C 1018.8 hPa West 9.7 km/h 20.9 km/h 46 % 0 mm
17:45 14.9 °C 3.1 °C 1018.8 hPa West 8 km/h 17.7 km/h 45 % 0 mm
20:37 12.5 °C 5.9 °C 1019.9 hPa SW 14.8 km/h 14.8 km/h 64 % 0 mm
20:44 12.4 °C 6 °C 1019.9 hPa SW 6.4 km/h 4.5 km/h 65 % 0 mm
20:49 12.3 °C 5.9 °C 1019.9 hPa SW 6.4 km/h 3.7 km/h 65 % 0 mm
20:54 12.3 °C 5.9 °C 1019.9 hPa SW 5.6 km/h 4.3 km/h 65 % 0 mm
20:59 12.2 °C 5.8 °C 1019.9 hPa SW 5.6 km/h 4.7 km/h 65 % 0 mm
21:04 12.1 °C 5.9 °C 1019.9 hPa North 5.6 km/h 2.7 km/h 66 % 0 mm
21:09 12 °C 5.8 °C 1019.9 hPa SW 5.6 km/h 3.5 km/h 66 % 0 mm
21:14 11.9 °C 5.9 °C 1019.9 hPa SW 5.6 km/h 4.8 km/h 67 % 0 mm
21:19 11.8 °C 5.8 °C 1019.9 hPa WSW 5.6 km/h 3.2 km/h 67 % 0 mm
21:24 11.7 °C 6 °C 1019.9 hPa SW 6.4 km/h 4 km/h 68 % 0 mm
21:29 11.7 °C 5.9 °C 1019.9 hPa North 5.6 km/h 3.9 km/h 68 % 0 mm
21:34 11.6 °C 6.1 °C 1019.9 hPa SW 6.4 km/h 5.5 km/h 69 % 0 mm
21:39 11.7 °C 5.9 °C 1020.2 hPa North 8 km/h 6.6 km/h 68 % 0 mm
21:44 11.8 °C 6.1 °C 1020.2 hPa SW 8 km/h 5.8 km/h 68 % 0 mm
21:49 11.8 °C 6.1 °C 1020.2 hPa SW 9.3 km/h 6.6 km/h 68 % 0 mm
21:54 11.9 °C 6.2 °C 1020.2 hPa SW 9.7 km/h 5.8 km/h 68 % 0 mm
21:59 11.9 °C 6.2 °C 1020.2 hPa SW 5.6 km/h 5.1 km/h 68 % 0 mm
22:04 11.9 °C 6.2 °C 1020.2 hPa SW 7.4 km/h 4.2 km/h 68 % 0 mm
22:09 11.9 °C 6.2 °C 1020.2 hPa SW 5.6 km/h 4 km/h 68 % 0 mm
22:14 11.8 °C 6.3 °C 1020.2 hPa SW 5.6 km/h 3.5 km/h 69 % 0 mm
22:19 11.7 °C 6.2 °C 1020.2 hPa SW 3.7 km/h 3.2 km/h 69 % 0 mm
22:24 11.7 °C 6.2 °C 1020.2 hPa WSW 5.6 km/h 4.3 km/h 69 % 0 mm
22:29 11.6 °C 6.1 °C 1020.2 hPa SW 5.6 km/h 4.7 km/h 69 % 0 mm
22:34 11.6 °C 6.1 °C 1020.2 hPa SW 7.4 km/h 5.5 km/h 69 % 0 mm
22:39 11.5 °C 6 °C 1020.2 hPa North 7.4 km/h 4.7 km/h 69 % 0 mm
22:44 11.4 °C 5.9 °C 1020.2 hPa WSW 7.4 km/h 4.3 km/h 69 % 0 mm
22:49 11.3 °C 5.8 °C 1020.2 hPa SW 5.6 km/h 3.9 km/h 69 % 0 mm
22:54 11.2 °C 5.7 °C 1020.2 hPa WSW 5.6 km/h 3.1 km/h 69 % 0 mm
22:59 11.2 °C 5.7 °C 1020.2 hPa SW 3.7 km/h 1.1 km/h 69 % 0 mm
23:04 11.1 °C 5.6 °C 1020.2 hPa Calm     69 % 0 mm
23:09 10.9 °C 5.5 °C 1020.2 hPa Calm     69 % 0 mm
23:14 10.8 °C 5.5 °C 1020.2 hPa Calm     70 % 0 mm
23:19 10.6 °C 5.3 °C 1020.2 hPa SW 3.7 km/h 1.6 km/h 70 % 0 mm
23:24 10.4 °C 5.3 °C 1020.2 hPa SW 3.7 km/h 2.6 km/h 71 % 0 mm
23:29 10.2 °C 5.2 °C 1020.2 hPa SW 5.6 km/h 2.7 km/h 71 % 0 mm
23:34 10.1 °C 5.3 °C 1020.2 hPa WSW 3.7 km/h 0.3 km/h 72 % 0 mm
23:39 10 °C 5.2 °C 1020.2 hPa Calm     72 % 0 mm
23:44 9.9 °C 5.1 °C 1020.2 hPa Calm     72 % 0 mm
23:49 9.7 °C 5.1 °C 1020.2 hPa Calm     73 % 0 mm
23:54 9.4 °C 5.1 °C 1020.2 hPa WSW 3.7 km/h 2.7 km/h 74 % 0 mm
23:59 9.4 °C 5.2 °C 1020.2 hPa WSW 4.8 km/h 2.7 km/h 75 % 0 mm
Ararat Weather
Compliments of Weather Underground - 2.5 mb
Click here to send mail.


ABOUT

Live weather data from Ararat, Victoria, Australia, 3377
Data uploaded from Cumulus every 5 minutes to Weather Underground.
This site then downloads the raw data for formatting and display.
Metric and imperial data can be displayed. Graphs and historical data available.
Includes Sun and Moon times and rain image live from BOM.

Check out Ararat Weather on Facebook, Twitter and Google +

Help support ongoing costs by checking out the ads





Follow @AraratWeather